createdAt,value
2018-12-30T00:01:24.521Z,5.42
2018-12-30T00:03:54.213Z,5.37
2018-12-30T00:06:23.960Z,5.50
2018-12-30T00:08:53.783Z,5.80
2018-12-30T00:11:23.277Z,5.37
2018-12-30T00:13:52.748Z,5.25
2018-12-30T00:16:22.384Z,5.72
2018-12-30T00:18:51.895Z,5.15
2018-12-30T00:21:21.361Z,5.03
2018-12-30T00:23:50.970Z,5.25
2018-12-30T00:26:20.516Z,5.83
2018-12-30T00:28:49.996Z,4.87
2018-12-30T00:31:20.054Z,5.03
2018-12-30T00:33:49.727Z,5.15
2018-12-30T00:36:19.266Z,4.87
2018-12-30T00:38:48.878Z,4.70
2018-12-30T00:41:18.454Z,5.05
2018-12-30T00:43:48.519Z,5.20
2018-12-30T00:46:18.101Z,5.28
2018-12-30T00:48:47.717Z,5.08
2018-12-30T00:51:17.462Z,4.62
2018-12-30T00:53:47.037Z,4.50
2018-12-30T00:56:16.912Z,4.95
2018-12-30T00:58:46.564Z,4.67
2018-12-30T01:01:16.061Z,4.65
2018-12-30T01:03:47.124Z,4.90
2018-12-30T01:06:16.904Z,4.97
2018-12-30T01:08:46.389Z,5.15
2018-12-30T01:11:15.916Z,4.85
2018-12-30T01:13:45.538Z,4.72
2018-12-30T01:16:15.103Z,5.33
2018-12-30T01:18:44.660Z,5.08
2018-12-30T01:21:14.253Z,4.60
2018-12-30T01:23:43.762Z,5.00
2018-12-30T01:26:13.271Z,4.33
2018-12-30T01:28:42.884Z,4.60
2018-12-30T01:31:12.467Z,4.75
2018-12-30T01:33:42.014Z,5.00
2018-12-30T01:36:11.592Z,4.25
2018-12-30T01:38:41.228Z,4.10
2018-12-30T01:41:10.726Z,4.33
2018-12-30T01:43:40.299Z,4.42
2018-12-30T01:46:09.920Z,4.72
2018-12-30T01:48:39.449Z,4.50
2018-12-30T01:51:09.024Z,4.17
2018-12-30T01:53:38.690Z,4.47
2018-12-30T01:56:08.263Z,4.28
2018-12-30T01:58:37.854Z,4.37
2018-12-30T02:01:07.480Z,4.20
2018-12-30T02:03:36.995Z,3.98
2018-12-30T02:06:06.563Z,4.28
2018-12-30T02:08:36.287Z,3.87
2018-12-30T02:11:05.766Z,4.30
2018-12-30T02:13:35.320Z,4.60
2018-12-30T02:16:05.029Z,4.47
2018-12-30T02:18:34.725Z,4.50
2018-12-30T02:21:04.205Z,4.45
2018-12-30T02:23:33.730Z,4.50
2018-12-30T02:26:03.259Z,4.08
2018-12-30T02:28:32.858Z,4.33
2018-12-30T02:31:02.477Z,4.53
2018-12-30T02:33:31.980Z,4.12
2018-12-30T02:36:01.451Z,3.92
2018-12-30T02:38:31.000Z,3.90
2018-12-30T02:41:00.599Z,4.65
2018-12-30T02:43:30.261Z,4.95
2018-12-30T02:45:59.808Z,4.55
2018-12-30T02:48:29.527Z,4.47
2018-12-30T02:50:59.000Z,3.92
2018-12-30T02:53:28.648Z,4.40
2018-12-30T02:55:58.242Z,4.00
2018-12-30T02:58:27.752Z,3.87
2018-12-30T03:00:57.266Z,4.17
2018-12-30T03:03:26.899Z,3.67
2018-12-30T03:05:56.484Z,4.28
2018-12-30T03:08:25.968Z,4.85
2018-12-30T03:10:55.565Z,4.50
2018-12-30T03:13:25.208Z,4.28
2018-12-30T03:15:54.809Z,4.05
2018-12-30T03:18:24.385Z,3.92
2018-12-30T03:20:53.936Z,4.22
2018-12-30T03:23:23.543Z,4.05
2018-12-30T03:25:53.113Z,3.62
2018-12-30T03:28:22.620Z,3.95
2018-12-30T03:30:52.154Z,4.25
2018-12-30T03:33:21.737Z,3.80
2018-12-30T03:35:51.479Z,4.15
2018-12-30T03:38:20.877Z,4.22
2018-12-30T03:40:50.352Z,4.10
2018-12-30T03:43:19.902Z,3.37
2018-12-30T03:45:49.519Z,3.40
2018-12-30T03:48:19.076Z,3.67
2018-12-30T03:50:48.726Z,4.15
2018-12-30T03:53:18.403Z,3.70
2018-12-30T03:55:47.901Z,3.85
2018-12-30T03:58:17.647Z,4.10
2018-12-30T04:00:47.289Z,3.70
2018-12-30T04:03:16.886Z,3.45
2018-12-30T04:05:46.482Z,3.75
2018-12-30T04:08:16.185Z,3.77
2018-12-30T04:10:45.921Z,3.42
2018-12-30T04:13:15.609Z,3.50
2018-12-30T04:15:45.433Z,3.65
2018-12-30T04:18:15.148Z,3.72
2018-12-30T04:20:44.860Z,3.95
2018-12-30T04:23:14.556Z,3.77
2018-12-30T04:25:44.175Z,3.75
2018-12-30T04:28:13.972Z,3.80
2018-12-30T04:30:43.600Z,3.67
2018-12-30T04:33:13.295Z,3.98
2018-12-30T04:35:42.806Z,3.58
2018-12-30T04:38:12.510Z,3.50
2018-12-30T04:40:42.224Z,3.20
2018-12-30T04:43:11.943Z,3.33
2018-12-30T04:45:41.588Z,3.62
2018-12-30T04:48:11.163Z,3.67
2018-12-30T04:50:40.867Z,3.17
2018-12-30T04:53:10.435Z,3.60
2018-12-30T04:55:40.097Z,3.75
2018-12-30T04:58:09.791Z,3.83
2018-12-30T05:00:39.396Z,3.50
2018-12-30T05:03:09.006Z,3.05
2018-12-30T05:05:38.636Z,3.42
2018-12-30T05:08:08.227Z,3.22
2018-12-30T05:10:37.942Z,3.40
2018-12-30T05:13:07.438Z,3.20
2018-12-30T05:15:37.059Z,4.10
2018-12-30T05:18:06.646Z,3.52
2018-12-30T05:20:36.371Z,3.40
2018-12-30T05:23:06.084Z,3.90
2018-12-30T05:25:35.808Z,3.55
2018-12-30T05:28:05.714Z,3.50
2018-12-30T05:30:35.322Z,3.55
2018-12-30T05:33:04.930Z,3.50
2018-12-30T05:35:34.562Z,3.33
2018-12-30T05:38:04.247Z,3.45
2018-12-30T05:40:33.787Z,3.35
2018-12-30T05:43:03.475Z,3.30
2018-12-30T05:45:33.187Z,3.37
2018-12-30T05:48:02.759Z,3.47
2018-12-30T05:50:33.547Z,3.80
2018-12-30T05:53:03.217Z,3.15
2018-12-30T05:55:32.726Z,3.60
2018-12-30T05:58:02.543Z,3.22
2018-12-30T06:00:32.157Z,3.37
2018-12-30T06:03:01.818Z,3.25
2018-12-30T06:05:32.564Z,3.00
2018-12-30T06:08:02.158Z,3.00
2018-12-30T06:10:31.685Z,3.50
2018-12-30T06:13:01.211Z,3.85
2018-12-30T06:15:30.873Z,3.17
2018-12-30T06:18:00.645Z,3.30
2018-12-30T06:20:30.220Z,3.60
2018-12-30T06:22:59.743Z,2.92
2018-12-30T06:25:29.495Z,3.33
2018-12-30T06:27:59.178Z,3.20
2018-12-30T06:30:28.892Z,3.70
2018-12-30T06:32:58.598Z,3.33
2018-12-30T06:35:28.218Z,3.50
2018-12-30T06:37:57.713Z,3.17
2018-12-30T06:40:27.432Z,3.47
2018-12-30T06:42:57.134Z,3.47
2018-12-30T06:45:26.787Z,3.55
2018-12-30T06:47:56.462Z,3.60
2018-12-30T06:50:26.038Z,3.87
2018-12-30T06:52:57.713Z,3.62
2018-12-30T06:55:26.934Z,3.35
2018-12-30T06:57:56.567Z,3.27
2018-12-30T07:00:26.141Z,3.85
2018-12-30T07:02:55.723Z,3.42
2018-12-30T07:05:25.367Z,3.30
2018-12-30T07:07:54.964Z,3.30
2018-12-30T07:10:24.689Z,3.65
2018-12-30T07:12:54.436Z,3.40
2018-12-30T07:15:23.996Z,3.77
2018-12-30T07:17:53.596Z,3.35
2018-12-30T07:20:23.508Z,4.67
2018-12-30T07:22:53.251Z,3.90
2018-12-30T07:25:22.934Z,4.10
2018-12-30T07:27:52.609Z,3.33
2018-12-30T07:30:22.147Z,3.60
2018-12-30T07:32:51.740Z,3.72
2018-12-30T07:35:21.384Z,3.77
2018-12-30T07:37:51.129Z,3.92
2018-12-30T07:40:20.653Z,3.95
2018-12-30T07:42:50.367Z,3.80
2018-12-30T07:45:20.026Z,3.70
2018-12-30T07:47:49.629Z,3.80
2018-12-30T07:50:19.227Z,3.77
2018-12-30T07:52:49.042Z,3.83
2018-12-30T07:55:18.650Z,4.12
2018-12-30T07:57:48.461Z,3.67
2018-12-30T08:00:18.211Z,4.10
2018-12-30T08:02:48.032Z,3.95
2018-12-30T08:05:17.590Z,3.90
2018-12-30T08:07:47.305Z,4.10
2018-12-30T08:10:17.029Z,4.40
2018-12-30T08:12:46.776Z,4.15
2018-12-30T08:15:16.358Z,4.00
2018-12-30T08:17:46.100Z,4.53
2018-12-30T08:20:15.757Z,4.25
2018-12-30T08:22:45.371Z,4.00
2018-12-30T08:25:15.084Z,4.33
2018-12-30T08:27:44.744Z,4.50
2018-12-30T08:30:14.578Z,4.00
2018-12-30T08:32:44.270Z,7.45
2018-12-30T08:35:13.819Z,4.70
2018-12-30T08:37:43.535Z,4.62
2018-12-30T08:40:13.172Z,5.00
2018-12-30T08:42:42.979Z,5.20
2018-12-30T08:45:12.559Z,7.37
2018-12-30T08:47:42.177Z,10.60
2018-12-30T08:50:11.884Z,8.33
2018-12-30T08:52:41.606Z,18.32
2018-12-30T08:55:11.405Z,10.30
2018-12-30T08:57:41.126Z,9.63
2018-12-30T09:00:10.831Z,11.20
2018-12-30T09:02:40.445Z,10.70
2018-12-30T09:05:10.151Z,9.60
2018-12-30T09:07:39.756Z,9.95
2018-12-30T09:10:09.416Z,9.53
2018-12-30T09:12:39.216Z,8.40
2018-12-30T09:15:08.746Z,9.65
2018-12-30T09:17:38.312Z,9.85
2018-12-30T09:20:07.998Z,9.53
2018-12-30T09:22:37.609Z,9.40
2018-12-30T09:25:07.121Z,9.15
2018-12-30T09:27:36.852Z,8.68
2018-12-30T09:30:06.963Z,8.95
2018-12-30T09:32:36.555Z,8.98
2018-12-30T09:35:06.180Z,9.20
2018-12-30T09:37:35.891Z,8.28
2018-12-30T09:40:05.551Z,8.43
2018-12-30T09:42:35.210Z,8.75
2018-12-30T09:45:04.946Z,8.00
2018-12-30T09:47:34.651Z,8.55
2018-12-30T09:50:04.335Z,9.20
2018-12-30T09:52:34.049Z,8.68
2018-12-30T09:55:03.646Z,8.40
2018-12-30T09:57:33.259Z,9.18
2018-12-30T10:00:02.970Z,9.48
2018-12-30T10:02:32.591Z,9.43
2018-12-30T10:05:02.285Z,9.15
2018-12-30T10:07:31.983Z,10.03
2018-12-30T10:10:01.549Z,12.37
2018-12-30T10:12:31.266Z,15.10
2018-12-30T10:15:09.294Z,15.53
2018-12-30T10:17:32.466Z,15.95
2018-12-30T10:20:02.027Z,18.12
2018-12-30T10:22:31.674Z,20.75
2018-12-30T10:25:01.293Z,21.27
2018-12-30T10:27:30.975Z,22.40
2018-12-30T10:30:00.570Z,24.02
2018-12-30T10:32:30.298Z,30.40
2018-12-30T10:34:59.998Z,27.67
2018-12-30T10:37:29.607Z,27.98
2018-12-30T10:39:59.323Z,26.52
2018-12-30T10:42:28.978Z,25.35
2018-12-30T10:44:58.524Z,26.80
2018-12-30T10:47:28.063Z,30.15
2018-12-30T10:49:57.856Z,31.80
2018-12-30T10:52:27.463Z,32.65
2018-12-30T10:54:57.171Z,32.48
2018-12-30T10:57:26.883Z,35.90
2018-12-30T10:59:56.662Z,39.75
2018-12-30T11:02:26.398Z,41.37
2018-12-30T11:04:56.143Z,42.53
2018-12-30T11:07:25.778Z,41.23
2018-12-30T11:09:55.571Z,41.45
2018-12-30T11:12:25.182Z,42.88
2018-12-30T11:14:54.754Z,43.02
2018-12-30T11:17:24.432Z,41.75
2018-12-30T11:19:54.081Z,42.67
2018-12-30T11:22:23.787Z,44.98
2018-12-30T11:24:53.355Z,46.42
2018-12-30T11:27:23.095Z,50.30
2018-12-30T11:29:52.775Z,47.45
2018-12-30T11:32:22.316Z,49.67
2018-12-30T11:34:52.066Z,48.78
2018-12-30T11:37:21.635Z,46.10
2018-12-30T11:39:51.162Z,49.35
2018-12-30T11:42:20.867Z,46.63
2018-12-30T11:44:50.509Z,48.80
2018-12-30T11:47:20.273Z,48.85
2018-12-30T11:49:49.923Z,49.15
2018-12-30T11:52:19.604Z,49.70
2018-12-30T11:54:49.221Z,48.90
2018-12-30T11:57:18.918Z,50.35
2018-12-30T11:59:48.636Z,50.23
2018-12-30T12:02:24.042Z,49.55
2018-12-30T12:04:49.801Z,49.30
2018-12-30T12:07:19.387Z,47.93
2018-12-30T12:09:49.221Z,47.48
2018-12-30T12:12:18.852Z,45.92
2018-12-30T12:14:48.574Z,46.63
2018-12-30T12:17:18.103Z,46.48
2018-12-30T12:19:47.764Z,46.33
2018-12-30T12:22:17.497Z,46.33
2018-12-30T12:24:47.067Z,44.13
2018-12-30T12:27:16.782Z,45.52
2018-12-30T12:29:47.910Z,42.75
2018-12-30T12:32:17.534Z,43.98
2018-12-30T12:34:47.168Z,43.23
2018-12-30T12:37:16.851Z,43.33
2018-12-30T12:39:46.492Z,41.77
2018-12-30T12:42:16.067Z,40.67
2018-12-30T12:44:46.033Z,40.70
2018-12-30T12:47:15.559Z,42.08
2018-12-30T12:49:45.214Z,41.23
2018-12-30T12:52:14.833Z,40.63
2018-12-30T12:54:44.525Z,40.03
2018-12-30T12:57:14.122Z,39.48
2018-12-30T12:59:43.788Z,38.08
2018-12-30T13:02:13.454Z,38.20
2018-12-30T13:04:43.040Z,37.42
2018-12-30T13:07:12.760Z,36.03
2018-12-30T13:09:42.390Z,37.50
2018-12-30T13:12:12.083Z,35.33
2018-12-30T13:14:41.769Z,36.28
2018-12-30T13:17:11.318Z,34.08
2018-12-30T13:19:40.918Z,35.92
2018-12-30T13:22:10.518Z,33.70
2018-12-30T13:24:40.344Z,33.78
2018-12-30T13:27:09.958Z,32.05
2018-12-30T13:29:39.569Z,33.70
2018-12-30T13:32:09.461Z,32.48
2018-12-30T13:34:38.970Z,32.50
2018-12-30T13:37:08.581Z,32.00
2018-12-30T13:39:38.186Z,31.50
2018-12-30T13:42:07.899Z,30.75
2018-12-30T13:44:37.652Z,30.52
2018-12-30T13:47:07.264Z,30.92
2018-12-30T13:49:36.826Z,29.65
2018-12-30T13:52:06.418Z,29.23
2018-12-30T13:54:36.313Z,29.95
2018-12-30T13:57:05.883Z,28.77
2018-12-30T13:59:35.475Z,28.12
2018-12-30T14:02:05.066Z,27.62
2018-12-30T14:04:34.721Z,29.00
2018-12-30T14:07:04.402Z,28.67
2018-12-30T14:09:34.012Z,27.67
2018-12-30T14:12:03.722Z,27.93
2018-12-30T14:14:33.657Z,28.57
2018-12-30T14:17:03.336Z,28.05
2018-12-30T14:19:33.024Z,27.13
2018-12-30T14:22:02.768Z,25.92
2018-12-30T14:24:32.272Z,26.25
2018-12-30T14:27:02.027Z,24.98
2018-12-30T14:29:31.637Z,25.40
2018-12-30T14:32:01.189Z,24.00
2018-12-30T14:34:30.920Z,23.83
2018-12-30T14:37:00.616Z,24.57
2018-12-30T14:39:30.229Z,24.87
2018-12-30T14:41:59.990Z,23.80
2018-12-30T14:44:29.555Z,24.30
2018-12-30T14:46:59.157Z,22.50
2018-12-30T14:49:28.789Z,23.87
2018-12-30T14:51:58.493Z,23.20
2018-12-30T14:54:28.089Z,23.40
2018-12-30T14:56:57.768Z,21.70
2018-12-30T14:59:27.408Z,22.90
2018-12-30T15:01:57.048Z,23.35
2018-12-30T15:04:26.614Z,22.55
2018-12-30T15:06:56.433Z,20.95
2018-12-30T15:09:26.145Z,22.10
2018-12-30T15:11:55.694Z,21.60
2018-12-30T15:14:25.364Z,20.72
2018-12-30T15:16:54.987Z,21.68
2018-12-30T15:19:24.607Z,21.02
2018-12-30T15:21:54.249Z,21.65
2018-12-30T15:24:23.917Z,20.37
2018-12-30T15:26:53.419Z,20.43
2018-12-30T15:29:23.041Z,20.27
2018-12-30T15:31:52.707Z,21.68
2018-12-30T15:34:22.337Z,19.57
2018-12-30T15:36:51.967Z,19.75
2018-12-30T15:39:21.564Z,19.40
2018-12-30T15:41:51.294Z,20.15
2018-12-30T15:44:20.767Z,20.50
2018-12-30T15:46:50.384Z,19.57
2018-12-30T15:49:20.086Z,19.65
2018-12-30T15:51:49.707Z,20.02
2018-12-30T15:54:19.191Z,18.30
2018-12-30T15:56:48.923Z,18.55
2018-12-30T15:59:18.494Z,17.95
2018-12-30T16:01:47.914Z,18.60
2018-12-30T16:04:17.534Z,18.00
2018-12-30T16:06:47.149Z,18.12
2018-12-30T16:09:17.199Z,18.55
2018-12-30T16:11:46.775Z,19.00
2018-12-30T16:14:16.413Z,17.20
2018-12-30T16:16:45.996Z,17.95
2018-12-30T16:19:15.397Z,16.85
2018-12-30T16:21:44.874Z,17.77
2018-12-30T16:24:14.239Z,16.87
2018-12-30T16:26:43.777Z,16.32
2018-12-30T16:29:13.588Z,17.17
2018-12-30T16:31:43.098Z,17.82
2018-12-30T16:34:12.823Z,17.77
2018-12-30T16:36:42.361Z,16.85
2018-12-30T16:39:11.910Z,16.12
2018-12-30T16:41:41.568Z,17.02
2018-12-30T16:44:11.263Z,16.42
2018-12-30T16:46:40.594Z,16.15
2018-12-30T16:49:10.167Z,16.48
2018-12-30T16:51:40.116Z,16.82
2018-12-30T16:54:10.069Z,15.50
2018-12-30T16:56:39.372Z,17.00
2018-12-30T16:59:09.031Z,16.50
2018-12-30T17:01:38.863Z,16.17
2018-12-30T17:04:08.540Z,15.50
2018-12-30T17:06:38.332Z,15.78
2018-12-30T17:09:08.990Z,16.15
2018-12-30T17:11:38.358Z,15.88
2018-12-30T17:14:07.981Z,14.93
2018-12-30T17:16:37.653Z,15.35
2018-12-30T17:19:07.259Z,15.43
2018-12-30T17:21:36.958Z,15.50
2018-12-30T17:24:06.741Z,15.65
2018-12-30T17:26:36.115Z,14.38
2018-12-30T17:29:06.606Z,14.75
2018-12-30T17:31:36.184Z,15.18
2018-12-30T17:34:05.999Z,15.40
2018-12-30T17:36:35.444Z,16.05
2018-12-30T17:39:06.747Z,15.13
2018-12-30T17:41:36.367Z,15.60
2018-12-30T17:44:05.968Z,15.65
2018-12-30T17:46:35.529Z,15.00
2018-12-30T17:49:05.047Z,15.50
2018-12-30T17:51:34.607Z,16.57
2018-12-30T17:54:04.320Z,16.42
2018-12-30T17:56:33.865Z,16.50
2018-12-30T17:59:03.423Z,16.67
2018-12-30T18:01:33.036Z,15.85
2018-12-30T18:04:02.744Z,16.77
2018-12-30T18:06:32.375Z,17.52
2018-12-30T18:09:02.087Z,17.25
2018-12-30T18:11:31.541Z,17.42
2018-12-30T18:14:01.137Z,18.62
2018-12-30T18:16:30.887Z,19.32
2018-12-30T18:19:00.539Z,18.85
2018-12-30T18:21:30.316Z,18.98
2018-12-30T18:24:00.011Z,18.40
2018-12-30T18:26:29.553Z,20.08
2018-12-30T18:28:59.271Z,19.17
2018-12-30T18:31:28.879Z,21.35
2018-12-30T18:33:58.671Z,20.48
2018-12-30T18:36:28.282Z,21.87
2018-12-30T18:38:57.759Z,21.73
2018-12-30T18:41:27.266Z,21.55
2018-12-30T18:43:56.886Z,21.48
2018-12-30T18:46:26.483Z,21.62
2018-12-30T18:48:56.208Z,22.32
2018-12-30T18:51:25.837Z,21.65
2018-12-30T18:53:55.312Z,21.55
2018-12-30T18:56:24.892Z,23.27
2018-12-30T18:58:54.477Z,21.77
2018-12-30T19:01:24.055Z,22.95
2018-12-30T19:03:53.649Z,22.22
2018-12-30T19:06:23.401Z,22.50
2018-12-30T19:08:53.000Z,21.55
2018-12-30T19:11:22.531Z,23.35
2018-12-30T19:13:52.555Z,22.07
2018-12-30T19:16:21.974Z,22.60
2018-12-30T19:18:51.649Z,22.73
2018-12-30T19:21:21.251Z,22.42
2018-12-30T19:23:50.946Z,23.20
2018-12-30T19:26:20.458Z,21.95
2018-12-30T19:28:50.116Z,22.50
2018-12-30T19:31:19.793Z,21.52
2018-12-30T19:33:49.403Z,21.95
2018-12-30T19:36:18.975Z,21.05
2018-12-30T19:38:48.629Z,21.82
2018-12-30T19:41:18.627Z,22.10
2018-12-30T19:43:48.249Z,21.82
2018-12-30T19:46:17.906Z,21.30
2018-12-30T19:48:47.527Z,21.25
2018-12-30T19:51:17.246Z,21.87
2018-12-30T19:53:46.951Z,20.90
2018-12-30T19:56:21.884Z,21.12
2018-12-30T19:58:47.790Z,20.75
2018-12-30T20:01:17.265Z,21.90
2018-12-30T20:03:46.839Z,20.70
2018-12-30T20:06:16.517Z,20.88
2018-12-30T20:08:46.129Z,21.45
2018-12-30T20:11:15.761Z,20.88
2018-12-30T20:13:45.348Z,19.98
2018-12-30T20:16:14.945Z,18.98
2018-12-30T20:18:44.770Z,20.17
2018-12-30T20:21:14.364Z,19.65
2018-12-30T20:23:44.076Z,19.10
2018-12-30T20:26:13.808Z,19.55
2018-12-30T20:28:43.407Z,19.95
2018-12-30T20:31:13.102Z,19.62
2018-12-30T20:33:42.782Z,19.73
2018-12-30T20:36:12.442Z,19.48
2018-12-30T20:38:42.115Z,18.50
2018-12-30T20:41:11.623Z,18.37
2018-12-30T20:43:41.286Z,17.73
2018-12-30T20:46:10.867Z,18.60
2018-12-30T20:48:40.480Z,19.32
2018-12-30T20:51:10.076Z,18.20
2018-12-30T20:53:39.696Z,18.45
2018-12-30T20:56:09.405Z,18.57
2018-12-30T20:58:39.126Z,18.42
2018-12-30T21:01:08.816Z,18.15
2018-12-30T21:03:38.328Z,18.35
2018-12-30T21:06:08.057Z,17.70
2018-12-30T21:08:37.664Z,18.50
2018-12-30T21:11:07.250Z,18.67
2018-12-30T21:13:37.141Z,18.00
2018-12-30T21:16:06.881Z,17.95
2018-12-30T21:18:36.494Z,18.07
2018-12-30T21:21:06.001Z,18.30
2018-12-30T21:23:35.717Z,17.37
2018-12-30T21:26:05.309Z,18.10
2018-12-30T21:28:35.041Z,17.32
2018-12-30T21:31:04.744Z,17.48
2018-12-30T21:33:34.351Z,17.02
2018-12-30T21:36:03.846Z,17.15
2018-12-30T21:38:33.497Z,17.90
2018-12-30T21:41:03.190Z,17.35
2018-12-30T21:43:32.830Z,16.95
2018-12-30T21:46:02.498Z,17.57
2018-12-30T21:48:32.211Z,16.87
2018-12-30T21:51:01.824Z,17.55
2018-12-30T21:53:31.517Z,18.42
2018-12-30T21:56:01.144Z,17.85
2018-12-30T21:58:30.938Z,17.07
2018-12-30T22:01:00.576Z,16.80
2018-12-30T22:03:30.262Z,17.12
2018-12-30T22:05:59.967Z,17.02
2018-12-30T22:08:29.588Z,16.73
2018-12-30T22:10:59.305Z,16.12
2018-12-30T22:13:30.627Z,16.60
2018-12-30T22:16:00.206Z,16.90
2018-12-30T22:18:29.807Z,15.90
2018-12-30T22:20:59.526Z,15.88
2018-12-30T22:23:29.117Z,15.15
2018-12-30T22:25:58.957Z,15.63
2018-12-30T22:28:28.639Z,16.30
2018-12-30T22:30:58.158Z,15.43
2018-12-30T22:33:27.953Z,15.65
2018-12-30T22:35:57.616Z,15.43
2018-12-30T22:38:27.187Z,16.50
2018-12-30T22:40:56.901Z,16.20
2018-12-30T22:43:26.539Z,16.37
2018-12-30T22:45:56.243Z,16.85
2018-12-30T22:48:25.825Z,15.63
2018-12-30T22:50:55.532Z,16.95
2018-12-30T22:53:25.035Z,16.25
2018-12-30T22:55:54.582Z,16.48
2018-12-30T22:58:24.253Z,16.20
2018-12-30T23:01:02.869Z,15.32
2018-12-30T23:03:32.475Z,15.40
2018-12-30T23:06:02.207Z,15.50
2018-12-30T23:08:31.757Z,15.35
2018-12-30T23:11:01.315Z,15.65
2018-12-30T23:13:30.947Z,15.18
2018-12-30T23:16:00.548Z,15.15
2018-12-30T23:18:30.028Z,14.73
2018-12-30T23:20:59.600Z,15.18
2018-12-30T23:23:29.261Z,15.00
2018-12-30T23:25:58.968Z,15.15
2018-12-30T23:28:28.667Z,14.83
2018-12-30T23:30:58.534Z,15.20
2018-12-30T23:33:28.195Z,16.15
2018-12-30T23:35:57.803Z,15.78
2018-12-30T23:38:27.411Z,15.93
2018-12-30T23:40:57.127Z,16.02
2018-12-30T23:43:26.732Z,16.70
2018-12-30T23:45:56.452Z,15.70
2018-12-30T23:48:26.055Z,16.27
2018-12-30T23:50:55.653Z,16.17
2018-12-30T23:53:25.384Z,15.95
2018-12-30T23:55:54.978Z,16.50
2018-12-30T23:58:24.691Z,15.70
